Time;durP1;ratioP1;P1;durP2;ratioP2;P2;SDS_P1;SDS_P2;PMS_P1;PMS_P2;Temp;Humidity;BMP_temperature;BMP_pressure;BME280_temperature;BME280_humidity;BME280_pressure;Samples;Min_cycle;Max_cycle;Signal;HPM_P1;HPM_P2
2023/10/12 00:01:27;;;;;;;9.80;9.60;;;20.00;99.90;;;;;;5102956;28;20452;-67
2023/10/12 00:03:58;;;;;;;9.97;9.77;;;20.00;99.90;;;;;;5098089;28;20958;-68
2023/10/12 00:06:30;;;;;;;10.20;10.00;;;20.00;99.90;;;;;;5096488;28;20481;-68
2023/10/12 00:08:57;;;;;;;10.37;10.17;;;19.90;99.90;;;;;;5093005;28;20829;-68
2023/10/12 00:11:37;;;;;;;10.10;9.90;;;20.00;99.90;;;;;;5101821;28;20881;-68
2023/10/12 00:14:05;;;;;;;10.00;9.80;;;19.90;99.90;;;;;;5100335;28;20476;-68
2023/10/12 00:16:35;;;;;;;10.10;9.90;;;19.90;99.90;;;;;;5108567;28;20481;-67
2023/10/12 00:19:11;;;;;;;10.30;10.10;;;19.90;99.90;;;;;;5095931;28;20566;-67
2023/10/12 00:21:38;;;;;;;10.00;9.80;;;19.90;99.90;;;;;;5094569;28;20469;-67
2023/10/12 00:24:06;;;;;;;10.00;9.80;;;19.90;99.90;;;;;;5101674;28;20968;-67
2023/10/12 00:26:34;;;;;;;10.40;10.20;;;19.90;99.90;;;;;;5098278;28;20486;-67
2023/10/12 00:29:00;;;;;;;10.10;9.90;;;19.70;99.90;;;;;;5101316;28;20484;-68
2023/10/12 00:31:29;;;;;;;9.90;9.70;;;19.80;99.90;;;;;;5102757;28;20446;-66
2023/10/12 00:33:58;;;;;;;10.40;10.20;;;19.70;99.90;;;;;;5104912;28;20458;-67
2023/10/12 00:36:25;;;;;;;10.30;10.10;;;19.70;99.90;;;;;;5104448;28;20959;-66
2023/10/12 00:38:53;;;;;;;10.17;9.97;;;19.70;99.90;;;;;;5092397;28;20470;-67
2023/10/12 00:41:24;;;;;;;10.90;10.70;;;19.70;99.90;;;;;;5095756;28;20964;-68
2023/10/12 00:43:57;;;;;;;10.63;10.43;;;19.60;99.90;;;;;;5093547;28;20499;-67
2023/10/12 00:46:40;;;;;;;10.50;10.30;;;19.60;99.90;;;;;;5095522;28;20473;-68
2023/10/12 00:49:20;;;;;;;10.40;10.20;;;19.50;99.90;;;;;;5093869;28;20449;-67
2023/10/12 00:51:52;;;;;;;10.90;10.70;;;19.60;99.90;;;;;;5094655;28;20465;-67
2023/10/12 00:54:27;;;;;;;10.77;10.57;;;19.60;99.90;;;;;;5102465;28;20518;-67
2023/10/12 00:56:56;;;;;;;10.50;10.30;;;19.50;99.90;;;;;;5091790;28;20453;-68
2023/10/12 00:59:23;;;;;;;10.77;10.57;;;19.50;99.90;;;;;;5091934;28;20488;-67
2023/10/12 01:01:50;;;;;;;10.57;10.37;;;19.50;99.90;;;;;;5099186;28;20766;-67
2023/10/12 01:04:19;;;;;;;10.60;10.40;;;19.50;99.90;;;;;;5107633;28;20456;-67
2023/10/12 01:06:47;;;;;;;11.30;11.00;;;19.50;99.90;;;;;;5092811;28;21012;-67
2023/10/12 01:09:20;;;;;;;11.47;11.17;;;19.40;99.90;;;;;;5098552;28;20520;-67
2023/10/12 01:11:57;;;;;;;10.83;10.63;;;19.30;99.90;;;;;;5100923;28;20502;-67
2023/10/12 01:14:28;;;;;;;11.20;10.90;;;19.20;99.90;;;;;;5101380;28;20992;-67
2023/10/12 01:16:58;;;;;;;11.73;11.43;;;19.10;99.90;;;;;;5104714;28;20524;-67
2023/10/12 01:19:30;;;;;;;11.60;11.30;;;19.10;99.90;;;;;;5097824;28;20979;-67
2023/10/12 01:22:07;;;;;;;14.80;14.30;;;19.00;99.90;;;;;;5095381;28;21297;-67
2023/10/12 01:24:35;;;;;;;15.40;14.90;;;18.70;99.90;;;;;;5098193;28;20514;-67
2023/10/12 01:27:03;;;;;;;15.83;15.23;;;18.50;99.90;;;;;;5087503;28;20477;-67
2023/10/12 01:29:31;;;;;;;15.53;15.03;;;18.30;99.90;;;;;;5098550;28;20454;-68
2023/10/12 01:34:51;;;;;;;15.20;14.70;;;18.10;99.90;;;;;;5101785;28;20457;-68
2023/10/12 01:37:25;;;;;;;14.53;14.03;;;17.90;99.90;;;;;;5097071;28;20905;-67
2023/10/12 01:39:58;;;;;;;14.50;14.00;;;17.90;99.90;;;;;;5093216;28;20951;-66
2023/10/12 01:42:42;;;;;;;15.00;14.50;;;17.80;99.90;;;;;;5091323;28;20994;-67
2023/10/12 01:45:18;;;;;;;15.90;15.30;;;17.70;99.90;;;;;;5105212;28;21037;-65
2023/10/12 01:47:50;;;;;;;15.53;14.93;;;17.60;99.90;;;;;;5107323;28;20488;-66
2023/10/12 01:50:17;;;;;;;15.30;14.70;;;17.50;99.90;;;;;;5100642;28;21089;-66
2023/10/12 01:52:47;;;;;;;17.77;16.97;;;17.50;99.90;;;;;;5103010;28;20461;-68
2023/10/12 01:55:22;;;;;;;21.40;20.20;;;17.30;99.90;;;;;;5087612;28;20493;-65
2023/10/12 01:57:51;;;;;;;21.80;20.50;;;17.20;99.90;;;;;;5090487;28;20547;-66
2023/10/12 02:00:24;;;;;;;20.73;19.53;;;17.00;99.90;;;;;;5089698;28;20728;-65
2023/10/12 02:03:00;;;;;;;20.30;19.10;;;16.90;99.90;;;;;;5105325;28;20450;-66
2023/10/12 02:05:30;;;;;;;21.50;20.17;;;16.80;99.90;;;;;;5099087;27;20464;-66
2023/10/12 02:08:05;;;;;;;20.40;19.10;;;16.60;99.90;;;;;;5103245;28;20485;-66
2023/10/12 02:10:43;;;;;;;20.27;18.97;;;16.50;99.90;;;;;;5095262;28;20739;-66
2023/10/12 02:13:10;;;;;;;20.50;19.20;;;16.40;99.90;;;;;;5094988;28;20496;-65
2023/10/12 02:15:38;;;;;;;20.47;19.07;;;16.30;99.90;;;;;;5102866;28;20562;-66
2023/10/12 02:18:11;;;;;;;19.10;17.90;;;16.10;99.90;;;;;;5104648;28;20490;-64
2023/10/12 02:21:06;;;;;;;19.20;18.00;;;16.00;99.90;;;;;;5090040;28;20527;-66
2023/10/12 02:23:36;;;;;;;19.00;17.90;;;15.90;99.90;;;;;;5096905;28;20454;-66
2023/10/12 02:26:07;;;;;;;18.23;17.23;;;15.80;99.90;;;;;;5102230;28;20500;-65
2023/10/12 02:28:37;;;;;;;17.60;16.60;;;15.70;99.90;;;;;;5103483;28;20576;-66
2023/10/12 02:31:05;;;;;;;18.00;17.00;;;15.70;99.90;;;;;;5089912;27;20548;-67
2023/10/12 02:33:36;;;;;;;17.77;16.77;;;15.70;99.90;;;;;;5101553;28;20454;-66
2023/10/12 02:36:07;;;;;;;17.27;16.37;;;15.70;99.90;;;;;;5102584;28;20497;-66
2023/10/12 02:38:36;;;;;;;17.50;16.60;;;15.70;99.90;;;;;;5088913;28;21021;-67
2023/10/12 02:41:03;;;;;;;17.17;16.27;;;15.70;99.90;;;;;;5091471;28;21010;-66
2023/10/12 02:43:32;;;;;;;17.47;16.57;;;15.50;99.90;;;;;;5090143;28;20458;-65
2023/10/12 02:46:06;;;;;;;17.10;16.20;;;15.50;99.90;;;;;;5092889;28;20458;-65
2023/10/12 02:48:36;;;;;;;16.87;15.97;;;15.50;99.90;;;;;;5092538;28;20500;-65
2023/10/12 02:51:06;;;;;;;17.00;16.10;;;15.40;99.90;;;;;;5099844;28;20462;-66
2023/10/12 02:53:34;;;;;;;17.23;16.33;;;15.40;99.90;;;;;;5093406;28;20471;-67
2023/10/12 02:56:02;;;;;;;16.93;16.10;;;15.50;99.90;;;;;;5090086;28;20795;-66
2023/10/12 02:58:32;;;;;;;17.53;16.63;;;15.40;99.90;;;;;;5091762;28;20457;-67
2023/10/12 03:01:12;;;;;;;17.37;16.47;;;15.50;99.90;;;;;;5093637;28;20470;-66
2023/10/12 03:03:47;;;;;;;17.20;16.30;;;15.50;99.90;;;;;;5102461;28;20948;-66
2023/10/12 03:06:21;;;;;;;17.37;16.47;;;15.40;99.90;;;;;;5097491;28;20967;-66
2023/10/12 03:09:04;;;;;;;17.20;16.30;;;15.40;99.90;;;;;;5096148;28;20489;-67
2023/10/12 03:11:33;;;;;;;17.30;16.40;;;15.40;99.90;;;;;;5098918;28;20453;-66
2023/10/12 03:14:04;;;;;;;16.40;15.60;;;15.40;99.90;;;;;;5098043;28;20956;-66
2023/10/12 03:16:35;;;;;;;16.50;15.70;;;15.40;99.90;;;;;;5108434;28;20475;-66
2023/10/12 03:19:17;;;;;;;16.43;15.63;;;15.40;99.90;;;;;;5098316;28;20527;-66
2023/10/12 03:21:46;;;;;;;16.40;15.60;;;15.40;99.90;;;;;;5100954;28;20951;-65
2023/10/12 03:24:15;;;;;;;15.90;15.20;;;15.40;99.90;;;;;;5099830;28;20461;-68
2023/10/12 03:26:49;;;;;;;15.10;14.50;;;15.40;99.90;;;;;;5110749;28;20953;-65
2023/10/12 03:29:19;;;;;;;15.03;14.43;;;15.30;99.90;;;;;;5094870;28;20848;-67
2023/10/12 03:31:58;;;;;;;14.90;14.30;;;15.30;99.90;;;;;;5096907;28;21519;-65
2023/10/12 03:34:53;;;;;;;15.10;14.50;;;15.30;99.90;;;;;;5092026;28;20463;-64
2023/10/12 03:37:39;;;;;;;15.03;14.43;;;15.20;99.90;;;;;;5101087;28;20498;-65
2023/10/12 03:40:49;;;;;;;15.27;14.67;;;15.20;99.90;;;;;;5092273;28;20464;-67
2023/10/12 03:43:05;;;;;;;15.20;14.60;;;15.20;99.90;;;;;;5091990;28;20944;-66
2023/10/12 03:45:38;;;;;;;15.60;14.90;;;15.20;99.90;;;;;;5097025;28;20476;-68
2023/10/12 03:48:24;;;;;;;15.50;14.80;;;15.20;99.90;;;;;;5107691;28;20529;-67
2023/10/12 03:50:58;;;;;;;15.93;15.23;;;15.20;99.90;;;;;;5105217;28;20461;-65
2023/10/12 03:53:31;;;;;;;16.17;15.47;;;15.20;99.90;;;;;;5097384;28;20468;-66
2023/10/12 03:55:58;;;;;;;15.20;14.60;;;15.20;99.90;;;;;;5098740;28;20467;-67
2023/10/12 03:58:28;;;;;;;14.90;14.30;;;15.20;99.90;;;;;;5100316;28;20507;-67
2023/10/12 04:03:44;;;;;;;16.07;15.37;;;15.20;99.90;;;;;;5104079;28;20522;-67
2023/10/12 04:06:16;;;;;;;15.90;15.20;;;15.20;99.90;;;;;;5095540;28;20464;-66
2023/10/12 04:08:52;;;;;;;16.00;15.30;;;15.30;99.90;;;;;;5099108;28;20496;-67
2023/10/12 04:16:56;;;;;;;16.10;15.40;;;15.20;99.90;;;;;;5091494;28;20846;-66
2023/10/12 04:19:29;;;;;;;15.77;15.07;;;15.20;99.90;;;;;;5096917;28;20496;-68
2023/10/12 04:24:48;;;;;;;16.33;15.53;;;15.30;99.90;;;;;;5089788;28;20449;-66
2023/10/12 04:27:24;;;;;;;15.50;14.80;;;15.30;99.90;;;;;;5090392;28;20484;-65
2023/10/12 04:29:59;;;;;;;15.80;15.10;;;15.40;99.90;;;;;;5099380;28;20456;-65
2023/10/12 04:32:53;;;;;;;16.07;15.37;;;15.20;99.90;;;;;;5102374;28;20457;-66
2023/10/12 04:35:33;;;;;;;16.40;15.70;;;15.30;99.90;;;;;;5098025;28;20488;-66
2023/10/12 04:38:08;;;;;;;15.70;15.00;;;15.40;99.90;;;;;;5090019;28;20530;-67
2023/10/12 04:40:37;;;;;;;15.43;14.77;;;15.40;99.90;;;;;;5099003;28;20466;-66
2023/10/12 04:43:06;;;;;;;15.87;15.17;;;15.40;99.90;;;;;;5103235;28;20555;-66
2023/10/12 04:48:21;;;;;;;15.80;15.10;;;15.40;99.90;;;;;;5100188;28;20485;-66
2023/10/12 04:50:52;;;;;;;14.90;14.30;;;15.40;99.90;;;;;;5104194;28;20801;-67
2023/10/12 04:53:19;;;;;;;15.57;14.90;;;15.40;99.90;;;;;;5093348;28;20508;-66
2023/10/12 04:55:48;;;;;;;15.60;14.90;;;15.40;99.90;;;;;;5100313;28;20868;-67
2023/10/12 04:58:31;;;;;;;14.90;14.30;;;15.40;99.90;;;;;;5096391;28;20490;-67
2023/10/12 05:01:20;;;;;;;14.80;14.20;;;15.40;99.90;;;;;;5093857;28;21050;-67
2023/10/12 05:04:06;;;;;;;14.63;14.10;;;15.40;99.90;;;;;;5099225;28;20502;-66
2023/10/12 05:06:35;;;;;;;14.00;13.50;;;15.40;99.90;;;;;;5090037;28;20583;-67
2023/10/12 05:09:10;;;;;;;13.90;13.40;;;15.40;99.90;;;;;;5091596;28;21009;-67
2023/10/12 05:11:38;;;;;;;14.10;13.60;;;15.40;99.90;;;;;;5102718;28;20448;-67
2023/10/12 05:14:14;;;;;;;14.23;13.73;;;15.40;99.90;;;;;;5096395;28;20469;-67
2023/10/12 05:16:45;;;;;;;13.33;12.90;;;15.40;99.90;;;;;;5101020;28;20474;-66
2023/10/12 05:19:12;;;;;;;13.30;12.80;;;15.50;99.90;;;;;;5093693;28;20459;-67
2023/10/12 05:21:39;;;;;;;13.60;13.10;;;15.50;99.90;;;;;;5087155;28;20469;-67
2023/10/12 05:24:09;;;;;;;13.50;13.00;;;15.50;99.90;;;;;;5092681;28;20871;-66
2023/10/12 05:26:37;;;;;;;12.90;12.50;;;15.50;99.90;;;;;;5091334;28;20496;-67
2023/10/12 05:29:34;;;;;;;12.90;12.50;;;15.50;99.90;;;;;;5095321;28;20851;-67
2023/10/12 05:32:06;;;;;;;12.50;12.10;;;15.50;99.90;;;;;;5096596;27;20460;-68
2023/10/12 05:34:44;;;;;;;12.37;11.97;;;15.50;99.90;;;;;;5096516;27;20552;-67
2023/10/12 05:37:24;;;;;;;12.50;12.10;;;15.50;99.90;;;;;;5100871;28;20514;-68
2023/10/12 05:39:52;;;;;;;12.47;12.07;;;15.50;99.90;;;;;;5100993;28;20537;-68
2023/10/12 05:42:22;;;;;;;12.53;12.13;;;15.40;99.90;;;;;;5102701;28;20457;-67
2023/10/12 05:44:49;;;;;;;12.40;12.00;;;15.50;99.90;;;;;;5100438;27;20477;-68
2023/10/12 05:47:28;;;;;;;12.40;12.00;;;15.50;99.90;;;;;;5096337;28;20472;-66
2023/10/12 05:49:57;;;;;;;12.60;12.20;;;15.50;99.90;;;;;;5090263;28;20956;-68
2023/10/12 05:52:24;;;;;;;12.63;12.23;;;15.50;99.90;;;;;;5102699;28;20932;-69
2023/10/12 05:54:52;;;;;;;12.60;12.20;;;15.50;99.90;;;;;;5096465;28;20553;-67
2023/10/12 05:57:19;;;;;;;12.73;12.33;;;15.50;99.90;;;;;;5084945;28;20462;-68
2023/10/12 05:59:46;;;;;;;12.50;12.10;;;15.50;99.90;;;;;;5088400;28;20469;-67
2023/10/12 06:02:13;;;;;;;12.50;12.10;;;15.50;99.90;;;;;;5093814;28;20894;-67
2023/10/12 06:04:42;;;;;;;12.50;12.10;;;15.50;99.90;;;;;;5087467;28;20557;-67
2023/10/12 06:07:10;;;;;;;13.07;12.67;;;15.40;99.90;;;;;;5091235;28;20503;-68
2023/10/12 06:09:37;;;;;;;13.20;12.80;;;15.50;99.90;;;;;;5092993;28;20485;-68
2023/10/12 06:12:06;;;;;;;12.50;12.10;;;15.50;99.90;;;;;;5091043;28;20545;-67
2023/10/12 06:14:34;;;;;;;13.47;12.97;;;15.50;99.90;;;;;;5091153;28;20461;-68
2023/10/12 06:17:02;;;;;;;12.90;12.50;;;15.50;99.90;;;;;;5092188;28;20481;-67
2023/10/12 06:19:34;;;;;;;12.50;12.10;;;15.50;99.90;;;;;;5093500;28;20454;-68
2023/10/12 06:22:19;;;;;;;13.00;12.60;;;15.50;99.90;;;;;;5096000;28;20469;-67
2023/10/12 06:24:49;;;;;;;12.40;12.00;;;15.50;99.90;;;;;;5091906;28;20463;-67
2023/10/12 06:27:23;;;;;;;12.23;11.83;;;15.50;99.90;;;;;;5099557;28;20465;-67
2023/10/12 06:29:51;;;;;;;12.57;12.17;;;15.50;99.90;;;;;;5091341;28;20498;-68
2023/10/12 06:32:19;;;;;;;12.10;11.70;;;15.50;99.90;;;;;;5097463;28;20537;-67
2023/10/12 06:34:46;;;;;;;12.43;12.03;;;15.50;99.90;;;;;;5092575;28;20468;-69
2023/10/12 06:40:26;;;;;;;12.20;11.80;;;15.60;99.90;;;;;;5093408;28;20493;-68
2023/10/12 06:43:57;;;;;;;12.30;11.90;;;15.60;99.90;;;;;;5095308;28;20548;-66
2023/10/12 06:45:46;;;;;;;11.80;11.50;;;15.60;99.90;;;;;;5099449;28;20556;-68
2023/10/12 06:48:23;;;;;;;12.10;11.80;;;15.60;99.90;;;;;;5093092;28;20477;-68
2023/10/12 06:50:53;;;;;;;12.00;11.70;;;15.70;99.90;;;;;;5095690;28;20454;-67
2023/10/12 06:53:24;;;;;;;11.80;11.50;;;15.70;99.90;;;;;;5094594;28;20464;-69
2023/10/12 06:55:57;;;;;;;11.77;11.47;;;15.70;99.90;;;;;;5097865;28;20455;-68
2023/10/12 06:58:36;;;;;;;11.30;11.00;;;15.80;99.90;;;;;;5097094;28;20468;-67
2023/10/12 07:01:18;;;;;;;10.77;10.47;;;15.80;99.90;;;;;;5088302;28;20454;-67
2023/10/12 07:03:47;;;;;;;10.63;10.37;;;15.80;99.90;;;;;;5093326;28;20456;-67
2023/10/12 07:06:14;;;;;;;9.70;9.50;;;15.80;99.90;;;;;;5087194;28;20493;-68
2023/10/12 07:08:46;;;;;;;9.57;9.37;;;15.80;99.90;;;;;;5089229;28;20547;-67
2023/10/12 07:11:14;;;;;;;9.33;9.13;;;15.90;99.90;;;;;;5094543;28;20462;-68
2023/10/12 07:13:41;;;;;;;9.10;8.90;;;15.90;99.90;;;;;;5090027;28;20455;-67
2023/10/12 07:16:08;;;;;;;9.33;9.13;;;15.90;99.90;;;;;;5093743;28;20479;-68
2023/10/12 07:18:36;;;;;;;9.10;8.90;;;15.90;99.90;;;;;;5094640;28;20465;-68
2023/10/12 07:21:06;;;;;;;9.30;9.10;;;16.00;99.90;;;;;;5097884;28;20865;-67
2023/10/12 07:23:36;;;;;;;9.17;8.97;;;16.00;99.90;;;;;;5097698;28;20485;-68
2023/10/12 07:26:12;;;;;;;9.20;9.00;;;16.10;99.90;;;;;;5096470;28;20445;-67
2023/10/12 07:28:41;;;;;;;9.47;9.27;;;16.20;99.90;;;;;;5089022;28;20584;-68
2023/10/12 07:31:34;;;;;;;9.60;9.40;;;16.20;99.90;;;;;;5092903;28;20544;-69
2023/10/12 07:34:05;;;;;;;10.30;10.10;;;16.20;99.90;;;;;;5096912;28;20457;-68
2023/10/12 07:36:52;;;;;;;10.10;9.90;;;16.30;99.90;;;;;;5097174;28;20445;-67
2023/10/12 07:39:20;;;;;;;10.30;10.10;;;16.30;99.90;;;;;;5094621;28;20464;-68
2023/10/12 07:41:57;;;;;;;10.20;10.00;;;16.30;99.90;;;;;;5095845;28;20457;-67
2023/10/12 07:44:25;;;;;;;10.00;9.80;;;16.40;99.90;;;;;;5098171;28;20480;-68
2023/10/12 07:46:56;;;;;;;10.23;10.03;;;16.40;99.90;;;;;;5090025;28;20569;-67
2023/10/12 07:49:30;;;;;;;10.10;9.90;;;16.50;99.90;;;;;;5093832;28;20493;-67
2023/10/12 07:52:07;;;;;;;10.47;10.20;;;16.50;99.90;;;;;;5098052;28;20529;-69
2023/10/12 07:57:22;;;;;;;10.13;9.93;;;16.50;99.90;;;;;;5102281;28;20441;-67
2023/10/12 07:59:59;;;;;;;10.30;10.10;;;16.60;99.90;;;;;;5094929;28;20449;-68
2023/10/12 08:02:59;;;;;;;10.30;10.10;;;16.60;99.90;;;;;;5097659;28;20453;-68
2023/10/12 08:05:41;;;;;;;10.37;10.17;;;16.60;99.90;;;;;;5094296;28;21046;-67
2023/10/12 08:08:17;;;;;;;10.23;10.03;;;16.60;99.90;;;;;;5099265;28;20484;-69
2023/10/12 08:10:58;;;;;;;10.13;9.93;;;16.70;99.90;;;;;;5096771;28;20872;-67
2023/10/12 08:13:26;;;;;;;10.10;9.90;;;16.70;99.90;;;;;;5090988;28;20551;-68
2023/10/12 08:15:58;;;;;;;10.13;9.93;;;16.70;99.90;;;;;;5096121;28;20492;-67
2023/10/12 08:21:22;;;;;;;10.00;9.80;;;16.80;99.90;;;;;;5090820;28;20902;-67
2023/10/12 08:23:50;;;;;;;10.37;10.17;;;16.80;99.90;;;;;;5090323;28;20992;-67
2023/10/12 08:26:35;;;;;;;9.70;9.50;;;16.90;99.90;;;;;;5097821;28;20805;-67
2023/10/12 08:29:09;;;;;;;9.80;9.60;;;17.00;99.90;;;;;;5095156;28;20485;-67
2023/10/12 08:31:43;;;;;;;9.70;9.50;;;17.10;99.90;;;;;;5097654;28;20446;-68
2023/10/12 08:37:17;;;;;;;9.60;9.40;;;17.20;99.90;;;;;;5096586;28;20972;-67
2023/10/12 08:39:50;;;;;;;9.50;9.30;;;17.30;99.90;;;;;;5090135;28;20759;-68
2023/10/12 08:42:36;;;;;;;9.00;8.80;;;17.30;99.90;;;;;;5091346;28;20987;-67
2023/10/12 08:45:09;;;;;;;9.50;9.30;;;17.30;99.90;;;;;;5099400;28;20853;-66
2023/10/12 08:47:50;;;;;;;9.20;9.00;;;17.40;99.90;;;;;;5095769;28;20468;-67
2023/10/12 08:53:05;;;;;;;9.70;9.50;;;17.50;99.90;;;;;;5100531;28;20483;-67
2023/10/12 08:55:32;;;;;;;9.53;9.33;;;17.60;99.90;;;;;;5097782;28;20463;-66
2023/10/12 08:58:11;;;;;;;10.33;10.13;;;17.60;99.90;;;;;;5091797;28;20582;-67
2023/10/12 09:00:44;;;;;;;9.87;9.67;;;17.80;99.90;;;;;;5102959;28;20499;-67
2023/10/12 09:03:27;;;;;;;9.70;9.50;;;17.90;99.90;;;;;;5108618;28;20464;-67
2023/10/12 09:05:55;;;;;;;10.10;9.90;;;18.00;99.90;;;;;;5095598;28;21023;-67
2023/10/12 09:11:14;;;;;;;10.80;10.50;;;18.30;99.90;;;;;;5091063;28;20465;-67
2023/10/12 09:13:45;;;;;;;11.17;10.87;;;18.40;99.90;;;;;;5098425;28;20464;-67
2023/10/12 09:16:15;;;;;;;11.20;10.90;;;18.60;99.90;;;;;;5098258;28;20481;-67
2023/10/12 09:18:46;;;;;;;11.30;11.00;;;18.70;99.90;;;;;;5098425;28;20474;-66
2023/10/12 09:21:27;;;;;;;11.23;10.93;;;18.90;99.90;;;;;;5099004;28;20462;-67
2023/10/12 09:24:05;;;;;;;11.63;11.33;;;18.90;99.90;;;;;;5093185;28;20480;-67
2023/10/12 09:26:33;;;;;;;12.20;11.90;;;19.10;99.90;;;;;;5095346;28;20457;-67
2023/10/12 09:29:12;;;;;;;12.23;11.93;;;19.30;99.90;;;;;;5101356;28;20554;-66
2023/10/12 09:31:55;;;;;;;12.20;11.90;;;19.40;99.90;;;;;;5091077;28;20453;-66
2023/10/12 09:37:06;;;;;;;12.30;12.00;;;19.60;99.90;;;;;;5093808;28;20465;-66
2023/10/12 09:39:35;;;;;;;11.93;11.63;;;19.70;99.90;;;;;;5090552;28;20468;-67
2023/10/12 09:42:19;;;;;;;12.80;12.40;;;19.70;99.90;;;;;;5092192;28;20472;-66
2023/10/12 09:44:51;;;;;;;12.90;12.50;;;19.70;99.90;;;;;;5100794;28;20481;-67
2023/10/12 09:47:25;;;;;;;12.83;12.43;;;19.80;99.90;;;;;;5098410;28;20796;-67
2023/10/12 09:49:55;;;;;;;13.10;12.70;;;19.80;99.90;;;;;;5099534;27;20990;-66
2023/10/12 09:52:24;;;;;;;12.80;12.40;;;19.80;99.90;;;;;;5097650;28;20453;-66
2023/10/12 09:54:58;;;;;;;13.40;13.00;;;20.10;99.90;;;;;;5091890;28;20462;-67
2023/10/12 09:57:26;;;;;;;13.43;13.03;;;20.20;99.90;;;;;;5092937;28;20507;-66
2023/10/12 09:59:59;;;;;;;13.37;12.97;;;20.30;99.90;;;;;;5095813;28;20458;-68
2023/10/12 10:02:33;;;;;;;13.40;13.00;;;20.40;99.90;;;;;;5099274;28;20926;-66
2023/10/12 10:05:01;;;;;;;13.70;13.30;;;20.50;99.90;;;;;;5087797;28;20549;-67
2023/10/12 10:07:35;;;;;;;13.60;13.20;;;20.70;99.90;;;;;;5088036;28;20462;-67
2023/10/12 10:10:05;;;;;;;13.60;13.20;;;20.70;99.90;;;;;;5087867;28;20494;-66
2023/10/12 10:12:36;;;;;;;13.53;13.13;;;20.90;99.90;;;;;;5098259;28;20458;-67
2023/10/12 10:15:14;;;;;;;13.47;13.07;;;21.20;99.90;;;;;;5094647;28;20460;-67
2023/10/12 10:17:52;;;;;;;13.73;13.33;;;21.20;99.90;;;;;;5099677;28;20461;-67
2023/10/12 10:23:14;;;;;;;14.00;13.60;;;21.40;99.90;;;;;;5096910;28;20877;-67
2023/10/12 10:25:46;;;;;;;13.63;13.23;;;21.60;99.90;;;;;;5092827;28;20456;-68
2023/10/12 10:28:19;;;;;;;13.70;13.30;;;21.80;99.90;;;;;;5094758;28;20457;-68
2023/10/12 10:30:50;;;;;;;14.30;13.80;;;21.80;99.90;;;;;;5093697;28;20847;-67
2023/10/12 10:33:24;;;;;;;14.20;13.70;;;21.80;99.90;;;;;;5097782;28;20465;-67
2023/10/12 10:35:59;;;;;;;13.80;13.40;;;21.80;99.90;;;;;;5100559;28;20452;-67
2023/10/12 10:38:32;;;;;;;13.90;13.50;;;21.80;99.90;;;;;;5088804;28;20464;-67
2023/10/12 10:41:08;;;;;;;14.33;13.83;;;21.70;99.90;;;;;;5087308;28;20507;-68
2023/10/12 10:43:38;;;;;;;14.37;13.87;;;21.60;99.90;;;;;;5088816;28;20461;-68
2023/10/12 10:46:09;;;;;;;14.60;14.10;;;21.50;99.90;;;;;;5105960;28;20458;-65
2023/10/12 10:48:39;;;;;;;14.17;13.67;;;21.40;99.90;;;;;;5095320;28;20591;-67
2023/10/12 10:51:11;;;;;;;14.30;13.80;;;21.50;99.90;;;;;;5093503;28;20489;-68
2023/10/12 10:53:39;;;;;;;14.30;13.80;;;21.50;99.90;;;;;;5098365;28;20951;-67
2023/10/12 10:56:15;;;;;;;14.40;13.90;;;21.60;99.90;;;;;;5092276;28;20536;-68
2023/10/12 10:58:46;;;;;;;13.93;13.53;;;21.70;99.90;;;;;;5098226;28;20514;-68
2023/10/12 11:01:14;;;;;;;14.30;13.80;;;21.90;99.90;;;;;;5108063;28;20481;-66
2023/10/12 11:03:46;;;;;;;14.50;14.00;;;21.90;99.90;;;;;;5088180;28;20465;-67
2023/10/12 11:06:21;;;;;;;14.33;13.83;;;21.90;99.90;;;;;;5088521;28;20470;-66
2023/10/12 11:09:04;;;;;;;14.20;13.70;;;21.90;99.90;;;;;;5093650;28;20472;-67
2023/10/12 11:11:37;;;;;;;14.37;13.87;;;21.90;99.90;;;;;;5097057;28;20453;-66
2023/10/12 11:14:08;;;;;;;14.37;13.87;;;21.80;99.90;;;;;;5090354;28;20465;-67
2023/10/12 11:16:36;;;;;;;14.43;13.93;;;21.80;99.90;;;;;;5090177;28;20498;-67
2023/10/12 11:19:09;;;;;;;14.40;13.90;;;21.90;99.90;;;;;;5089454;28;20458;-66
2023/10/12 11:21:37;;;;;;;14.40;13.90;;;21.90;99.90;;;;;;5089352;28;20465;-65
2023/10/12 11:24:09;;;;;;;14.43;13.93;;;22.00;99.90;;;;;;5092363;28;20560;-67
2023/10/12 11:26:51;;;;;;;14.50;14.00;;;22.00;99.90;;;;;;5091090;28;21025;-67
2023/10/12 11:29:19;;;;;;;14.50;14.00;;;21.90;99.90;;;;;;5100111;28;20825;-67
2023/10/12 11:32:08;;;;;;;14.50;14.00;;;22.20;99.90;;;;;;5094846;28;20543;-67
2023/10/12 11:34:36;;;;;;;14.73;14.23;;;22.10;99.90;;;;;;5095222;28;20466;-68
2023/10/12 11:37:03;;;;;;;14.40;13.90;;;21.80;99.90;;;;;;5094226;28;21024;-67
2023/10/12 11:39:41;;;;;;;14.47;13.97;;;21.50;99.90;;;;;;5100663;28;20460;-67
2023/10/12 11:42:12;;;;;;;14.87;14.37;;;21.50;99.90;;;;;;5094901;28;20472;-67
2023/10/12 11:44:42;;;;;;;14.40;13.90;;;21.20;99.90;;;;;;5110055;28;20991;-67
2023/10/12 11:47:09;;;;;;;14.60;14.10;;;21.20;99.90;;;;;;5098347;28;20454;-67
2023/10/12 11:49:55;;;;;;;14.20;13.70;;;21.00;99.90;;;;;;5088560;28;20987;-67
2023/10/12 11:52:29;;;;;;;14.40;13.90;;;21.00;99.90;;;;;;5095610;28;20477;-67
2023/10/12 11:55:01;;;;;;;13.50;13.10;;;21.00;99.90;;;;;;5097386;28;20459;-67
2023/10/12 11:57:28;;;;;;;13.50;13.10;;;21.00;99.90;;;;;;5104247;28;20552;-68
2023/10/12 11:59:55;;;;;;;13.70;13.30;;;20.90;99.90;;;;;;5092052;28;20469;-67
2023/10/12 12:02:23;;;;;;;13.73;13.33;;;20.80;99.90;;;;;;5102227;28;20908;-68
2023/10/12 12:04:51;;;;;;;13.50;13.10;;;20.80;99.90;;;;;;5105729;28;20489;-68
2023/10/12 12:07:20;;;;;;;13.43;13.03;;;20.80;99.90;;;;;;5102168;28;20480;-68
2023/10/12 12:09:48;;;;;;;13.60;13.20;;;20.90;99.90;;;;;;5091681;28;20573;-69
2023/10/12 12:12:16;;;;;;;13.80;13.40;;;20.70;99.90;;;;;;5092446;28;20468;-68
2023/10/12 12:14:47;;;;;;;14.30;13.80;;;20.70;99.90;;;;;;5099710;28;20863;-67
2023/10/12 12:17:15;;;;;;;14.80;14.30;;;20.50;99.90;;;;;;5099135;28;20481;-67
2023/10/12 12:19:43;;;;;;;14.50;14.00;;;20.40;99.90;;;;;;5097989;28;20461;-66
2023/10/12 12:22:13;;;;;;;13.80;13.40;;;20.10;99.90;;;;;;5097219;28;20462;-68
2023/10/12 12:24:44;;;;;;;13.20;12.80;;;19.80;99.90;;;;;;5096584;28;20510;-67
2023/10/12 12:27:37;;;;;;;12.70;12.30;;;19.60;99.90;;;;;;5096393;28;20946;-66
2023/10/12 12:30:04;;;;;;;12.50;12.20;;;19.50;99.90;;;;;;5100080;28;20476;-67
2023/10/12 12:32:31;;;;;;;12.90;12.50;;;19.50;99.90;;;;;;5101715;28;20457;-68
2023/10/12 12:34:58;;;;;;;13.20;12.80;;;19.40;99.90;;;;;;5098816;27;20865;-67
2023/10/12 12:37:29;;;;;;;13.10;12.70;;;19.20;99.90;;;;;;5104777;28;20846;-66
2023/10/12 12:40:14;;;;;;;12.37;11.97;;;19.00;99.90;;;;;;5094126;27;20462;-67
2023/10/12 12:42:41;;;;;;;11.30;11.00;;;18.80;99.90;;;;;;5106169;28;20562;-66
2023/10/12 12:45:08;;;;;;;10.60;10.40;;;18.60;99.90;;;;;;5099968;28;20501;-67
2023/10/12 12:47:37;;;;;;;9.40;9.20;;;18.70;99.90;;;;;;5106347;28;20537;-68
2023/10/12 12:50:04;;;;;;;9.50;9.30;;;18.80;99.90;;;;;;5091837;28;20493;-66
2023/10/12 12:52:36;;;;;;;9.77;9.57;;;18.80;99.90;;;;;;5093040;28;21009;-67
2023/10/12 12:55:10;;;;;;;10.00;9.80;;;19.00;99.90;;;;;;5096437;28;20545;-68
2023/10/12 12:57:38;;;;;;;10.10;9.90;;;19.30;99.90;;;;;;5103866;28;20480;-67
2023/10/12 13:00:08;;;;;;;10.60;10.40;;;19.40;99.90;;;;;;5090869;28;21102;-68
2023/10/12 13:02:36;;;;;;;10.60;10.40;;;19.60;99.90;;;;;;5092565;28;20461;-68
2023/10/12 13:05:04;;;;;;;11.50;11.20;;;19.90;99.90;;;;;;5102340;28;21092;-67
2023/10/12 13:07:33;;;;;;;11.50;11.20;;;19.90;99.90;;;;;;5101331;28;20619;-66
2023/10/12 13:10:00;;;;;;;11.47;11.17;;;19.80;99.90;;;;;;5093679;28;20573;-67
2023/10/12 13:12:31;;;;;;;11.37;11.07;;;19.90;99.90;;;;;;5091742;28;20790;-66
2023/10/12 13:15:00;;;;;;;11.70;11.40;;;20.00;99.90;;;;;;5104519;28;20829;-67
2023/10/12 13:17:29;;;;;;;11.40;11.10;;;20.00;99.90;;;;;;5102032;28;20489;-67
2023/10/12 13:19:58;;;;;;;11.40;11.10;;;20.00;99.90;;;;;;5088334;28;20454;-66
2023/10/12 13:22:25;;;;;;;11.60;11.30;;;19.90;99.90;;;;;;5097438;28;20460;-67
2023/10/12 13:24:56;;;;;;;11.60;11.30;;;20.10;99.90;;;;;;5102544;28;20464;-67
2023/10/12 13:27:24;;;;;;;11.67;11.37;;;20.00;99.90;;;;;;5104480;28;20944;-67
2023/10/12 13:29:51;;;;;;;12.10;11.80;;;20.00;99.90;;;;;;5099074;28;20859;-67
2023/10/12 13:32:18;;;;;;;12.50;12.20;;;19.70;99.90;;;;;;5096513;28;20477;-67
2023/10/12 13:34:45;;;;;;;12.53;12.23;;;19.40;99.90;;;;;;5105597;28;20461;-67